Time;durP1;ratioP1;P1;durP2;ratioP2;P2;SDS_P1;SDS_P2;PMS_P1;PMS_P2;Temp;Humidity;BMP_temperature;BMP_pressure;BME280_temperature;BME280_humidity;BME280_pressure;Samples;Min_cycle;Max_cycle;Signal;HPM_P1;HPM_P2
2022/11/09 00:00:34;;;;;;;3.65;1.50;;;;;;;12.19;79.49;100423.00;5028146;28;20403;-76
2022/11/09 00:02:59;;;;;;;3.17;1.45;;;;;;;12.21;79.53;100415.97;5009665;28;20040;-76
2022/11/09 00:05:25;;;;;;;5.75;1.60;;;;;;;12.23;79.89;100418.50;5028205;28;20025;-77
2022/11/09 00:07:50;;;;;;;4.10;1.30;;;;;;;12.25;79.92;100411.47;5028244;28;20434;-76
2022/11/09 00:10:15;;;;;;;4.00;1.50;;;;;;;12.27;79.63;100420.97;5026716;28;20032;-76
2022/11/09 00:12:41;;;;;;;4.13;1.33;;;;;;;12.27;79.69;100426.16;5026727;28;20072;-76
2022/11/09 00:15:06;;;;;;;3.72;1.30;;;;;;;12.27;79.72;100423.56;5010682;28;20033;-76
2022/11/09 00:17:32;;;;;;;5.47;1.50;;;;;;;12.28;79.59;100429.63;5028867;28;20076;-76
2022/11/09 00:19:57;;;;;;;4.82;1.38;;;;;;;12.27;79.56;100420.97;5027336;28;20539;-75
2022/11/09 00:22:22;;;;;;;5.82;1.50;;;;;;;12.27;79.52;100415.75;5027697;28;20037;-76
2022/11/09 00:24:47;;;;;;;3.03;1.58;;;;;;;12.23;79.48;100408.94;5027603;28;20039;-76
2022/11/09 00:27:13;;;;;;;4.15;1.50;;;;;;;12.21;79.89;100400.31;5027268;28;20452;-76
2022/11/09 00:29:38;;;;;;;3.58;1.40;;;;;;;12.22;79.95;100406.38;5027384;28;20041;-76
2022/11/09 00:32:04;;;;;;;3.55;1.40;;;;;;;12.21;79.97;100408.16;5028293;28;20513;-75
2022/11/09 00:34:29;;;;;;;3.38;1.17;;;;;;;12.23;80.26;100403.72;5026839;28;20452;-76
2022/11/09 00:36:54;;;;;;;3.97;1.50;;;;;;;12.25;80.02;100412.34;5026727;28;20037;-76
2022/11/09 00:39:19;;;;;;;3.13;1.40;;;;;;;12.28;79.90;100411.34;5027152;28;20029;-77
2022/11/09 00:41:45;;;;;;;3.10;1.20;;;;;;;12.28;80.45;100409.63;5027007;28;20494;-76
2022/11/09 00:44:10;;;;;;;5.22;1.73;;;;;;;12.30;80.09;100414.75;5028214;28;20033;-77
2022/11/09 00:46:35;;;;;;;3.20;1.42;;;;;;;12.33;80.14;100408.56;5027676;28;20045;-77
2022/11/09 00:49:00;;;;;;;4.18;1.25;;;;;;;12.35;79.66;100417.19;5027236;28;20496;-77
2022/11/09 00:51:26;;;;;;;3.78;1.30;;;;;;;12.33;80.16;100408.56;5009025;28;20107;-77
2022/11/09 00:53:53;;;;;;;6.05;1.50;;;;;;;12.31;80.12;100411.25;5027158;28;20087;-76
2022/11/09 00:56:19;;;;;;;2.75;1.35;;;;;;;12.28;80.20;100400.94;5026698;28;20040;-77
2022/11/09 00:58:44;;;;;;;3.83;1.65;;;;;;;12.27;80.26;100410.53;5026608;28;20033;-77
2022/11/09 01:01:15;;;;;;;3.45;1.38;;;;;;;12.25;80.14;100407.13;5008791;28;20029;-76
2022/11/09 01:03:42;;;;;;;5.35;1.52;;;;;;;12.23;80.27;100408.06;5027020;28;20711;-76
2022/11/09 01:06:08;;;;;;;2.30;1.17;;;;;;;12.20;80.21;100406.44;5027291;28;20025;-76
2022/11/09 01:08:34;;;;;;;4.68;1.50;;;;;;;12.17;80.55;100411.78;5026466;28;20037;-76
2022/11/09 01:11:07;;;;;;;7.43;1.60;;;;;;;12.15;80.42;100410.97;5026530;28;20083;-77
2022/11/09 01:13:33;;;;;;;2.95;1.38;;;;;;;12.14;80.35;100409.28;5026885;28;20040;-76
2022/11/09 01:15:59;;;;;;;5.20;1.33;;;;;;;12.13;80.56;100420.63;5026593;28;20029;-76
2022/11/09 01:18:24;;;;;;;4.63;1.60;;;;;;;12.11;80.46;100425.91;5027369;28;20653;-76
2022/11/09 01:20:49;;;;;;;2.97;1.30;;;;;;;12.10;80.65;100423.38;5025941;28;20235;-75
2022/11/09 01:23:16;;;;;;;3.33;1.30;;;;;;;12.10;80.81;100426.81;5027144;28;20022;-75
2022/11/09 01:25:42;;;;;;;3.97;1.30;;;;;;;12.09;80.50;100432.09;5027097;28;20068;-76
2022/11/09 01:28:09;;;;;;;5.07;1.30;;;;;;;12.09;80.72;100430.34;5027125;28;20060;-75
2022/11/09 01:30:36;;;;;;;2.55;1.38;;;;;;;12.09;80.60;100430.34;5026461;28;20033;-76
2022/11/09 01:33:03;;;;;;;3.55;1.50;;;;;;;12.08;80.61;100430.41;5026464;28;20049;-77
2022/11/09 01:35:28;;;;;;;3.63;1.25;;;;;;;12.06;80.43;100429.59;5026628;28;20036;-77
2022/11/09 01:37:53;;;;;;;3.45;1.30;;;;;;;12.05;80.60;100430.50;5026962;28;20018;-76
2022/11/09 01:40:19;;;;;;;2.28;1.20;;;;;;;12.05;80.34;100425.31;5027197;28;20096;-76
2022/11/09 01:42:44;;;;;;;3.40;1.30;;;;;;;12.05;81.02;100433.13;5010448;28;20029;-77
2022/11/09 01:45:44;;;;;;;5.10;1.38;;;;;;;12.03;80.47;100442.75;5027635;28;20075;-77
2022/11/09 01:48:17;;;;;;;3.25;1.40;;;;;;;11.99;80.57;100435.03;4987542;28;20045;-76
2022/11/09 01:51:01;;;;;;;2.88;1.30;;;;;;;11.99;80.65;100434.22;5026529;28;20034;-76
2022/11/09 01:53:31;;;;;;;3.42;1.30;;;;;;;11.97;80.43;100441.22;5024888;28;20026;-76
2022/11/09 01:56:03;;;;;;;3.75;1.40;;;;;;;11.95;80.54;100437.81;5030875;28;20067;-76
2022/11/09 01:58:38;;;;;;;2.67;1.30;;;;;;;11.93;80.73;100440.47;5030766;28;20024;-76
2022/11/09 02:01:09;;;;;;;3.75;1.38;;;;;;;11.92;80.64;100430.09;5029205;28;20032;-76
2022/11/09 02:03:39;;;;;;;4.03;1.25;;;;;;;11.91;80.74;100420.56;5027305;28;20064;-76
2022/11/09 02:06:07;;;;;;;4.32;1.08;;;;;;;11.86;80.83;100420.75;5030740;28;20481;-76
2022/11/09 02:08:33;;;;;;;4.97;1.50;;;;;;;11.84;80.86;100406.94;5031172;28;20028;-76
2022/11/09 02:11:08;;;;;;;3.17;1.23;;;;;;;11.83;80.93;100415.66;5034516;28;20117;-77
2022/11/09 02:13:37;;;;;;;4.78;1.55;;;;;;;11.80;80.69;100431.41;5034865;28;20045;-77
2022/11/09 02:16:03;;;;;;;3.63;1.30;;;;;;;11.79;81.04;100434.91;5033917;28;20033;-76
2022/11/09 02:18:31;;;;;;;3.25;1.23;;;;;;;11.76;80.91;100419.41;5015867;28;20022;-77
2022/11/09 02:20:57;;;;;;;3.20;1.30;;;;;;;11.74;80.97;100419.47;5028350;28;20030;-76
2022/11/09 02:23:24;;;;;;;4.13;1.40;;;;;;;11.75;81.12;100433.34;5034662;28;20025;-76
2022/11/09 02:25:58;;;;;;;6.18;1.40;;;;;;;11.73;81.28;100427.34;5016860;28;20021;-77
2022/11/09 02:28:25;;;;;;;3.50;1.38;;;;;;;11.74;81.00;100431.66;5034438;28;20052;-76
2022/11/09 02:30:53;;;;;;;4.10;1.33;;;;;;;11.75;81.11;100426.38;5024106;28;20033;-76
2022/11/09 02:33:18;;;;;;;4.05;1.38;;;;;;;11.75;81.20;100433.34;5014521;28;20033;-76
2022/11/09 02:35:44;;;;;;;5.15;1.40;;;;;;;11.76;81.11;100445.47;5014693;28;20033;-76
2022/11/09 02:38:13;;;;;;;3.88;1.20;;;;;;;11.77;80.98;100432.38;5014563;28;20022;-76
2022/11/09 02:40:42;;;;;;;4.05;1.40;;;;;;;11.79;81.04;100445.34;5029359;28;20033;-77
2022/11/09 02:43:09;;;;;;;3.03;1.65;;;;;;;11.79;80.88;100451.41;5032413;28;20033;-76
2022/11/09 02:45:35;;;;;;;4.43;1.35;;;;;;;11.81;80.96;100448.75;5034176;28;20534;-77
2022/11/09 02:48:01;;;;;;;4.38;1.10;;;;;;;11.82;80.73;100450.44;5034239;28;20033;-77
2022/11/09 02:50:26;;;;;;;5.80;1.20;;;;;;;11.85;80.67;100450.34;5020548;28;20038;-77
2022/11/09 02:52:52;;;;;;;2.97;1.27;;;;;;;11.86;80.48;100428.56;5014221;28;20044;-76
2022/11/09 02:55:17;;;;;;;3.88;1.15;;;;;;;11.88;80.23;100438.94;5014282;28;20029;-76
2022/11/09 02:57:42;;;;;;;2.70;1.20;;;;;;;11.89;80.25;100436.28;5026933;28;20432;-76
2022/11/09 03:00:08;;;;;;;3.95;1.10;;;;;;;11.93;79.76;100434.41;5051642;28;20025;-77
2022/11/09 03:02:34;;;;;;;6.53;1.50;;;;;;;11.95;79.75;100429.97;5053774;28;20021;-76
2022/11/09 03:04:59;;;;;;;4.90;1.48;;;;;;;11.97;79.59;100422.97;5036220;28;20543;-76
2022/11/09 03:07:24;;;;;;;5.53;1.20;;;;;;;11.98;79.46;100404.66;4996419;28;20408;-77
2022/11/09 03:09:50;;;;;;;5.28;1.23;;;;;;;11.98;79.10;100409.88;5013897;28;20026;-77
2022/11/09 03:12:30;;;;;;;3.63;1.13;;;;;;;12.01;78.77;100424.59;5013490;28;20456;-76
2022/11/09 03:15:01;;;;;;;4.90;1.20;;;;;;;12.05;78.81;100430.50;4996248;28;20455;-77
2022/11/09 03:17:27;;;;;;;;;;;;;;;12.09;79.19;100439.94;5014432;28;20033;-77
2022/11/09 03:19:52;;;;;;;4.07;1.20;;;;;;;12.08;78.42;100435.63;5013363;28;19996;-77
2022/11/09 03:22:18;;;;;;;3.40;0.90;;;;;;;12.08;78.37;100451.25;5013684;28;20076;-77
2022/11/09 03:24:44;;;;;;;6.05;1.25;;;;;;;12.10;78.22;100465.09;5013847;28;20033;-76
2022/11/09 03:27:09;;;;;;;5.25;1.27;;;;;;;12.09;78.27;100466.84;5025548;28;20029;-76
2022/11/09 03:29:35;;;;;;;4.30;1.20;;;;;;;12.11;78.35;100472.00;5015760;28;20036;-76
2022/11/09 03:32:00;;;;;;;5.63;0.93;;;;;;;12.10;78.27;100473.75;5033091;28;20476;-76
2022/11/09 03:34:25;;;;;;;5.18;1.30;;;;;;;12.11;78.20;100477.22;5033272;28;20086;-77
2022/11/09 03:36:51;;;;;;;3.67;0.82;;;;;;;12.10;78.43;100483.34;5023469;28;20033;-76
2022/11/09 03:39:16;;;;;;;3.05;1.10;;;;;;;12.10;78.35;100475.53;5031762;28;20021;-77
2022/11/09 03:41:41;;;;;;;3.38;0.82;;;;;;;12.10;78.27;100485.97;5033046;28;20385;-76
2022/11/09 03:44:06;;;;;;;6.03;1.25;;;;;;;12.08;78.48;100482.56;5033152;28;20022;-77
2022/11/09 03:46:32;;;;;;;5.85;1.20;;;;;;;12.05;79.02;100490.47;5025930;28;20498;-76
2022/11/09 03:48:57;;;;;;;6.20;1.00;;;;;;;12.04;78.88;100488.78;5013096;28;20025;-77
2022/11/09 03:51:23;;;;;;;5.13;1.02;;;;;;;12.01;78.86;100496.72;5013146;28;20123;-76
2022/11/09 03:53:48;;;;;;;2.90;1.10;;;;;;;11.99;79.01;100494.19;5013181;28;20026;-77
2022/11/09 03:56:13;;;;;;;5.18;1.00;;;;;;;11.96;79.15;100495.09;5017099;28;20361;-77
2022/11/09 03:58:39;;;;;;;4.63;1.50;;;;;;;11.93;79.36;100505.66;5032565;28;20018;-76
2022/11/09 04:01:04;;;;;;;6.03;1.33;;;;;;;11.93;79.60;100513.47;5031795;28;20519;-76
2022/11/09 04:03:29;;;;;;;5.72;1.30;;;;;;;11.92;79.92;100511.78;5032487;28;20033;-77
2022/11/09 04:05:57;;;;;;;5.07;1.50;;;;;;;11.92;79.86;100511.78;5030986;28;20522;-77
2022/11/09 04:08:23;;;;;;;3.53;1.00;;;;;;;11.90;79.92;100516.19;5012664;28;20033;-77
2022/11/09 04:10:48;;;;;;;4.15;0.93;;;;;;;11.89;79.95;100514.50;5026169;28;20036;-77
2022/11/09 04:13:13;;;;;;;4.40;0.88;;;;;;;11.86;80.18;100509.38;5032315;28;20057;-77
2022/11/09 04:15:38;;;;;;;4.18;1.00;;;;;;;11.85;80.20;100515.50;5032571;28;20432;-77
2022/11/09 04:18:04;;;;;;;6.72;1.08;;;;;;;11.82;80.37;100511.25;5013161;28;20107;-77
2022/11/09 04:20:30;;;;;;;4.40;1.08;;;;;;;11.80;80.37;100512.19;5012747;28;20036;-77
2022/11/09 04:22:57;;;;;;;5.72;1.20;;;;;;;11.77;80.45;100522.75;5012579;28;20026;-77
2022/11/09 04:25:24;;;;;;;3.03;1.00;;;;;;;11.73;80.61;100523.75;5012617;28;20049;-76
2022/11/09 04:27:53;;;;;;;4.32;1.10;;;;;;;11.69;80.49;100534.28;5011341;28;20120;-76
2022/11/09 04:30:19;;;;;;;5.25;1.00;;;;;;;11.66;80.72;100531.78;5032235;28;20075;-77
2022/11/09 04:32:44;;;;;;;4.70;1.27;;;;;;;11.65;80.55;100532.69;5031502;28;20459;-76
2022/11/09 04:35:09;;;;;;;5.45;1.10;;;;;;;11.62;80.91;100530.19;5032169;28;20030;-76
2022/11/09 04:37:34;;;;;;;4.35;0.90;;;;;;;11.61;80.79;100536.34;5017302;28;20021;-77
2022/11/09 04:40:00;;;;;;;4.32;1.10;;;;;;;11.60;80.82;100538.97;5012414;28;20057;-76
2022/11/09 04:42:25;;;;;;;4.07;1.10;;;;;;;11.59;80.75;100543.34;5012297;28;20030;-76
2022/11/09 04:44:50;;;;;;;6.30;1.08;;;;;;;11.57;80.93;100545.16;5017743;28;20422;-77
2022/11/09 04:47:15;;;;;;;4.68;1.00;;;;;;;11.56;81.12;100542.59;5030783;28;20033;-77
2022/11/09 04:49:41;;;;;;;8.48;1.23;;;;;;;11.55;81.38;100552.16;5019509;28;20026;-77
2022/11/09 04:52:06;;;;;;;4.70;1.15;;;;;;;11.53;81.24;100552.19;5024279;28;20449;-77
2022/11/09 04:54:31;;;;;;;4.10;0.95;;;;;;;11.54;81.25;100558.28;5012068;28;20026;-77
2022/11/09 04:56:56;;;;;;;6.45;1.30;;;;;;;11.50;81.43;100548.88;5012164;28;20049;-77
2022/11/09 04:59:22;;;;;;;4.57;0.90;;;;;;;11.49;81.38;100550.63;5012051;28;20050;-77
2022/11/09 05:01:47;;;;;;;5.32;1.00;;;;;;;11.48;81.58;100550.66;5026139;28;20048;-77
2022/11/09 05:04:12;;;;;;;3.25;0.90;;;;;;;11.42;81.81;100543.91;5031436;28;20129;-76
2022/11/09 05:06:37;;;;;;;9.27;1.27;;;;;;;11.41;81.68;100554.41;5014005;28;20496;-77
2022/11/09 05:09:05;;;;;;;5.25;1.30;;;;;;;11.41;82.13;100543.97;5030295;28;20026;-77
2022/11/09 05:11:31;;;;;;;5.13;1.10;;;;;;;11.35;81.89;100535.47;5019731;28;20052;-77
2022/11/09 05:13:57;;;;;;;7.07;1.08;;;;;;;11.33;82.38;100537.25;5031664;28;20104;-76
2022/11/09 05:16:23;;;;;;;5.68;1.48;;;;;;;11.31;82.36;100539.06;5028369;28;20056;-76
2022/11/09 05:18:49;;;;;;;6.57;1.20;;;;;;;11.30;82.57;100537.38;5011919;28;20018;-77
2022/11/09 05:21:14;;;;;;;3.40;1.13;;;;;;;11.29;82.79;100535.66;5011798;28;20380;-76
2022/11/09 05:23:58;;;;;;;8.13;1.10;;;;;;;11.25;82.96;100531.47;5011741;28;20105;-77
2022/11/09 05:26:29;;;;;;;4.35;1.10;;;;;;;11.22;82.84;100536.78;5019071;28;20100;-77
2022/11/09 05:28:57;;;;;;;6.00;1.38;;;;;;;11.20;83.07;100535.97;5031460;28;20080;-76
2022/11/09 05:31:23;;;;;;;3.25;0.90;;;;;;;11.16;83.17;100535.25;5029383;28;20484;-76
2022/11/09 05:33:50;;;;;;;6.03;1.17;;;;;;;11.13;83.27;100529.25;5031019;28;20030;-76
2022/11/09 05:36:16;;;;;;;5.75;1.20;;;;;;;11.10;83.04;100532.81;5022067;28;20033;-76
2022/11/09 05:38:41;;;;;;;5.03;1.05;;;;;;;11.07;83.33;100535.53;5031308;28;20025;-77
2022/11/09 05:41:06;;;;;;;4.80;1.00;;;;;;;11.05;83.58;100538.19;5031364;28;20515;-76
2022/11/09 05:43:31;;;;;;;7.50;1.23;;;;;;;11.04;83.69;100539.09;5031198;28;20044;-77
2022/11/09 05:45:57;;;;;;;6.18;1.40;;;;;;;11.00;83.70;100532.28;5032221;28;20105;-77
2022/11/09 05:48:22;;;;;;;4.60;1.15;;;;;;;10.98;83.84;100541.88;5025470;28;20025;-76
2022/11/09 05:50:47;;;;;;;5.50;1.20;;;;;;;10.97;83.88;100539.34;5023155;28;20037;-76
2022/11/09 05:53:13;;;;;;;5.32;1.30;;;;;;;10.96;83.87;100541.06;5022373;28;20031;-76
2022/11/09 05:55:38;;;;;;;4.85;1.08;;;;;;;10.94;83.87;100540.28;5027812;28;20033;-76
2022/11/09 05:58:03;;;;;;;5.47;1.40;;;;;;;10.91;83.95;100540.41;5008402;28;20120;-77
2022/11/09 06:00:29;;;;;;;7.20;1.77;;;;;;;10.89;83.93;100537.81;5024294;28;20033;-76
2022/11/09 06:03:01;;;;;;;8.85;1.08;;;;;;;10.89;84.20;100547.41;5024635;28;20031;-76
2022/11/09 06:05:27;;;;;;;5.13;1.00;;;;;;;10.88;84.49;100545.69;5027004;28;20116;-77
2022/11/09 06:07:52;;;;;;;4.57;1.23;;;;;;;10.84;84.33;100544.09;5034927;28;20104;-76
2022/11/09 06:10:17;;;;;;;6.35;1.60;;;;;;;10.83;84.65;100542.38;5025211;28;20034;-76
2022/11/09 06:12:43;;;;;;;5.72;1.10;;;;;;;10.83;84.23;100548.44;5008932;28;20055;-77
2022/11/09 06:15:08;;;;;;;5.93;1.20;;;;;;;10.83;84.62;100547.59;4999743;28;20068;-76
2022/11/09 06:17:33;;;;;;;6.10;1.00;;;;;;;10.82;85.18;100545.88;5014940;28;20061;-76
2022/11/09 06:20:00;;;;;;;5.22;1.17;;;;;;;10.81;84.83;100546.78;5014806;28;20132;-76
2022/11/09 06:22:25;;;;;;;5.15;1.27;;;;;;;10.80;84.59;100550.28;5015105;28;20451;-77
2022/11/09 06:24:50;;;;;;;6.97;1.50;;;;;;;10.77;84.82;100553.84;5034649;28;20095;-76
2022/11/09 06:27:15;;;;;;;5.72;1.85;;;;;;;10.76;84.75;100563.38;5034527;28;20029;-76
2022/11/09 06:29:41;;;;;;;7.75;1.70;;;;;;;10.74;85.07;100560.00;5034516;28;20040;-76
2022/11/09 06:32:06;;;;;;;7.05;1.17;;;;;;;10.74;84.85;100565.19;5026430;28;20064;-77
2022/11/09 06:34:31;;;;;;;6.30;1.20;;;;;;;10.72;84.95;100561.78;5014534;28;20034;-77
2022/11/09 06:36:57;;;;;;;4.90;1.73;;;;;;;10.72;85.17;100567.00;5018966;28;20483;-77
2022/11/09 06:39:22;;;;;;;6.05;1.13;;;;;;;10.71;85.00;100565.28;5032501;28;20029;-77
2022/11/09 06:41:47;;;;;;;5.00;1.30;;;;;;;10.67;85.50;100563.69;5034332;28;20057;-77
2022/11/09 06:44:14;;;;;;;6.50;1.55;;;;;;;10.68;85.41;100570.59;5034314;28;20060;-77
2022/11/09 06:46:39;;;;;;;6.13;1.33;;;;;;;10.66;85.52;100574.97;5033055;28;20052;-76
2022/11/09 06:49:04;;;;;;;6.30;1.20;;;;;;;10.64;85.72;100581.97;5022263;28;20034;-77
2022/11/09 06:51:30;;;;;;;4.65;1.30;;;;;;;10.63;85.84;100575.06;5016273;28;20435;-76
2022/11/09 06:53:55;;;;;;;7.50;1.20;;;;;;;10.61;85.57;100577.72;5033631;28;20723;-76
2022/11/09 06:56:20;;;;;;;5.53;1.25;;;;;;;10.60;85.72;100577.75;5015275;28;20044;-77
2022/11/09 06:58:46;;;;;;;6.47;1.23;;;;;;;10.59;85.90;100571.72;5031908;28;20488;-76
2022/11/09 07:01:16;;;;;;;5.53;1.27;;;;;;;10.58;86.13;100577.81;5033834;28;20033;-77
2022/11/09 07:03:41;;;;;;;4.78;1.52;;;;;;;10.56;86.47;100583.97;5033955;28;20057;-76
2022/11/09 07:06:09;;;;;;;4.25;1.10;;;;;;;10.56;86.33;100582.19;5024847;28;20380;-76
2022/11/09 07:08:35;;;;;;;7.82;1.38;;;;;;;10.56;86.30;100594.38;5028801;28;20029;-76
2022/11/09 07:11:06;;;;;;;6.80;1.38;;;;;;;10.54;86.18;100589.19;5024599;28;20037;-77
2022/11/09 07:13:31;;;;;;;8.23;1.40;;;;;;;10.54;86.38;100591.78;5025846;28;20456;-77
2022/11/09 07:15:56;;;;;;;6.72;1.35;;;;;;;10.55;86.43;100590.91;5029196;28;20029;-76
2022/11/09 07:18:22;;;;;;;5.47;1.55;;;;;;;10.55;86.42;100601.31;5029293;28;20070;-76
2022/11/09 07:20:47;;;;;;;5.82;1.50;;;;;;;10.57;86.62;100596.06;5028904;28;20025;-76
2022/11/09 07:23:12;;;;;;;7.60;1.42;;;;;;;10.59;86.37;100609.91;5028828;28;20040;-76
2022/11/09 07:25:37;;;;;;;5.78;1.45;;;;;;;10.58;86.81;100605.59;5029616;28;20494;-77
2022/11/09 07:28:06;;;;;;;5.18;1.42;;;;;;;10.61;86.39;100613.28;5029413;28;20060;-76
2022/11/09 07:30:31;;;;;;;5.00;1.30;;;;;;;10.61;86.24;100606.34;5029356;28;20025;-76
2022/11/09 07:32:58;;;;;;;7.25;1.50;;;;;;;10.65;86.38;100604.50;5027863;28;20029;-76
2022/11/09 07:35:24;;;;;;;5.53;1.25;;;;;;;10.68;86.11;100613.94;5009907;28;20550;-76
2022/11/09 07:37:49;;;;;;;7.28;1.35;;;;;;;10.70;86.13;100613.03;5010172;28;20021;-76
2022/11/09 07:40:14;;;;;;;6.07;1.20;;;;;;;10.72;85.85;100607.75;5029027;28;20024;-75
2022/11/09 07:42:40;;;;;;;7.32;1.30;;;;;;;10.73;86.33;100609.47;5029055;28;20033;-75
2022/11/09 07:45:06;;;;;;;4.70;1.20;;;;;;;10.76;86.06;100615.41;5029102;28;20033;-75
2022/11/09 07:47:31;;;;;;;6.15;1.35;;;;;;;10.77;85.83;100611.91;5028853;28;20037;-75
2022/11/09 07:49:56;;;;;;;7.25;1.30;;;;;;;10.80;85.86;100615.31;5010915;28;20148;-75
2022/11/09 07:52:21;;;;;;;5.97;1.38;;;;;;;10.80;85.67;100608.38;5027667;28;20068;-76
2022/11/09 07:54:47;;;;;;;10.13;1.92;;;;;;;10.80;85.33;100608.38;5028894;28;20064;-75
2022/11/09 07:57:12;;;;;;;6.90;1.38;;;;;;;10.81;85.49;100617.03;5028443;28;20041;-75
2022/11/09 07:59:37;;;;;;;4.85;1.38;;;;;;;10.82;85.63;100618.75;5009537;28;20057;-76
2022/11/09 08:02:02;;;;;;;5.20;1.42;;;;;;;10.82;85.45;100619.63;5028142;28;20137;-76
2022/11/09 08:04:28;;;;;;;2.95;0.98;;;;;;;10.84;85.63;100632.56;5027896;28;20396;-76
2022/11/09 08:06:53;;;;;;;4.28;1.35;;;;;;;10.85;85.63;100632.50;5026569;28;20084;-76
2022/11/09 08:09:19;;;;;;;6.75;1.40;;;;;;;10.87;85.84;100627.28;5026745;28;20477;-76
2022/11/09 08:11:44;;;;;;;5.47;1.10;;;;;;;10.89;85.55;100635.88;5027022;28;20049;-75
2022/11/09 08:14:09;;;;;;;7.70;1.38;;;;;;;10.91;85.47;100636.69;5028222;28;20029;-76
2022/11/09 08:16:35;;;;;;;6.63;1.58;;;;;;;10.92;85.51;100636.63;5029117;28;20099;-76
2022/11/09 08:19:00;;;;;;;6.55;1.42;;;;;;;10.96;85.62;100642.59;5027476;28;20033;-76
2022/11/09 08:21:25;;;;;;;5.43;1.40;;;;;;;11.02;85.38;100647.63;5026666;28;20045;-76
2022/11/09 08:23:51;;;;;;;4.57;1.42;;;;;;;11.07;85.29;100650.94;5027524;28;20064;-76
2022/11/09 08:26:16;;;;;;;5.75;1.20;;;;;;;11.10;85.11;100655.19;5027072;28;20675;-76
2022/11/09 08:28:41;;;;;;;4.85;1.50;;;;;;;11.12;84.64;100655.13;5026605;28;20384;-74
2022/11/09 08:31:07;;;;;;;5.15;1.40;;;;;;;11.14;84.94;100662.00;5026769;28;20033;-76
2022/11/09 08:33:36;;;;;;;5.85;1.17;;;;;;;11.15;84.64;100668.94;5022330;28;20033;-74
2022/11/09 08:36:08;;;;;;;3.40;1.05;;;;;;;11.18;84.53;100675.78;5025365;28;20029;-75
2022/11/09 08:38:33;;;;;;;4.78;1.38;;;;;;;11.19;84.68;100664.47;5026712;28;20029;-76
2022/11/09 08:40:59;;;;;;;3.63;1.10;;;;;;;11.21;84.10;100668.72;5026770;28;20079;-75
2022/11/09 08:43:24;;;;;;;5.43;1.90;;;;;;;11.25;84.34;100669.50;5009656;28;20025;-76
2022/11/09 08:45:50;;;;;;;6.70;1.45;;;;;;;11.26;83.93;100659.91;5027148;28;20025;-75
2022/11/09 08:48:15;;;;;;;5.30;1.13;;;;;;;11.30;83.56;100670.19;5027294;28;20455;-74
2022/11/09 08:50:40;;;;;;;6.30;1.15;;;;;;;11.33;83.91;100662.28;5026193;28;20028;-75
2022/11/09 08:53:06;;;;;;;5.13;1.40;;;;;;;11.37;84.08;100674.31;5027656;28;20102;-75
2022/11/09 08:55:33;;;;;;;5.18;1.30;;;;;;;11.44;83.56;100668.91;5025959;28;20034;-75
2022/11/09 08:58:00;;;;;;;5.05;1.23;;;;;;;11.49;82.95;100669.59;5024036;28;20052;-75
2022/11/09 09:00:25;;;;;;;6.82;1.42;;;;;;;11.54;82.86;100665.94;5027709;28;20037;-75
2022/11/09 09:02:51;;;;;;;5.22;1.27;;;;;;;11.60;82.81;100664.03;5026867;28;20033;-76
2022/11/09 09:05:16;;;;;;;4.72;1.33;;;;;;;11.67;82.09;100669.00;5026753;28;20452;-76
2022/11/09 09:07:42;;;;;;;7.82;1.50;;;;;;;11.73;82.34;100664.50;5026738;28;20537;-75
2022/11/09 09:10:07;;;;;;;7.20;1.35;;;;;;;11.75;81.40;100667.91;5027375;28;20033;-76
2022/11/09 09:12:33;;;;;;;8.45;1.48;;;;;;;11.76;81.48;100667.00;5026609;28;20072;-76
2022/11/09 09:14:58;;;;;;;8.75;1.65;;;;;;;11.78;80.85;100670.41;5026781;28;20120;-76
2022/11/09 09:17:23;;;;;;;6.95;1.63;;;;;;;11.79;81.09;100661.66;5026423;28;20040;-76
2022/11/09 09:19:49;;;;;;;7.00;1.20;;;;;;;11.83;80.82;100673.69;5027913;28;20040;-75
2022/11/09 09:22:14;;;;;;;6.55;1.30;;;;;;;11.84;81.31;100667.56;5026636;28;20041;-76
2022/11/09 09:24:39;;;;;;;5.10;1.20;;;;;;;11.86;80.87;100670.16;5027700;28;20029;-76
2022/11/09 09:27:04;;;;;;;6.57;1.40;;;;;;;11.86;80.64;100668.38;5027311;28;20029;-76
2022/11/09 09:29:30;;;;;;;5.32;1.20;;;;;;;11.91;80.00;100674.31;5026906;28;20209;-77
2022/11/09 09:31:55;;;;;;;7.18;1.20;;;;;;;11.92;80.39;100673.41;5025900;28;20025;-77
2022/11/09 09:34:20;;;;;;;5.78;1.30;;;;;;;11.95;80.51;100680.25;5026134;28;20040;-76
2022/11/09 09:36:45;;;;;;;7.70;1.30;;;;;;;11.97;79.64;100679.28;5026397;28;20038;-77
2022/11/09 09:39:11;;;;;;;5.18;1.30;;;;;;;11.99;79.63;100687.94;5026371;28;20517;-76
2022/11/09 09:41:40;;;;;;;10.02;1.65;;;;;;;12.01;79.08;100684.44;5024237;28;20029;-76
2022/11/09 09:44:31;;;;;;;6.95;1.48;;;;;;;12.09;79.37;100685.03;5024233;28;20036;-76
2022/11/09 09:47:10;;;;;;;11.55;1.58;;;;;;;12.06;78.54;100687.75;5023213;28;20037;-76
2022/11/09 09:49:41;;;;;;;3.60;1.05;;;;;;;12.07;78.36;100689.44;5024511;28;20492;-76
2022/11/09 09:52:21;;;;;;;9.60;1.55;;;;;;;12.11;78.43;100697.09;5023101;28;20061;-75
2022/11/09 09:54:53;;;;;;;6.50;1.17;;;;;;;12.12;78.22;100697.97;5006005;28;20399;-76
2022/11/09 09:57:21;;;;;;;6.95;1.50;;;;;;;12.13;78.17;100700.50;5023742;28;20037;-76
2022/11/09 09:59:50;;;;;;;5.85;1.30;;;;;;;12.15;78.12;100700.44;5024373;28;20026;-75
2022/11/09 10:02:20;;;;;;;7.57;1.48;;;;;;;12.17;77.88;100697.81;5024826;28;20056;-75
2022/11/09 10:04:45;;;;;;;5.35;1.25;;;;;;;12.19;77.49;100715.09;5025366;28;20037;-76
2022/11/09 10:07:21;;;;;;;5.15;1.35;;;;;;;12.24;77.90;100707.09;5026353;28;20466;-76
2022/11/09 10:10:01;;;;;;;5.82;1.23;;;;;;;12.32;77.49;100712.06;5024718;28;20065;-76
2022/11/09 10:12:57;;;;;;;5.95;1.30;;;;;;;12.35;76.84;100714.56;5025300;28;20048;-76
2022/11/09 10:15:44;;;;;;;5.88;1.30;;;;;;;12.40;76.90;100715.25;5024454;28;20045;-76
2022/11/09 10:18:18;;;;;;;6.15;1.30;;;;;;;12.46;76.85;100717.66;5024487;28;20041;-77
2022/11/09 10:20:53;;;;;;;5.75;1.20;;;;;;;12.53;76.05;100707.84;5021550;28;20507;-76
2022/11/09 10:23:37;;;;;;;4.00;1.00;;;;;;;12.60;75.85;100724.97;5023217;28;20449;-76
2022/11/09 10:26:20;;;;;;;8.73;1.27;;;;;;;12.66;76.03;100719.53;5024435;28;20041;-76
2022/11/09 10:28:51;;;;;;;8.10;1.48;;;;;;;12.72;74.48;100721.06;5024445;28;20076;-76
2022/11/09 10:31:18;;;;;;;4.47;1.07;;;;;;;12.78;74.36;100710.41;5028559;28;20040;-76
2022/11/09 10:34:06;;;;;;;7.15;1.20;;;;;;;12.88;74.66;100711.75;5029870;28;20044;-76
2022/11/09 10:36:43;;;;;;;4.97;1.13;;;;;;;12.92;73.87;100714.25;5030088;28;20052;-76
2022/11/09 10:39:12;;;;;;;4.57;1.10;;;;;;;12.93;73.62;100721.19;5026962;28;20072;-76
2022/11/09 10:41:45;;;;;;;7.80;1.35;;;;;;;13.01;73.27;100729.56;5028369;28;20033;-76
2022/11/09 10:44:14;;;;;;;4.90;1.10;;;;;;;13.05;71.94;100726.81;5026175;28;20090;-77
2022/11/09 10:47:06;;;;;;;8.45;1.30;;;;;;;13.13;73.19;100723.91;5028260;28;20051;-76
2022/11/09 10:49:32;;;;;;;4.50;1.00;;;;;;;13.19;72.05;100734.09;5025305;28;20632;-77
2022/11/09 10:51:58;;;;;;;5.78;1.30;;;;;;;13.25;71.60;100740.00;5010009;28;20411;-76
2022/11/09 10:54:30;;;;;;;5.38;1.20;;;;;;;13.27;71.54;100732.97;5027942;28;20087;-76
2022/11/09 10:57:15;;;;;;;;;;;;;;;13.31;72.88;100729.31;5028793;28;20075;-76
2022/11/09 10:59:49;;;;;;;5.32;1.00;;;;;;;13.28;71.43;100735.50;5027333;28;20000;-75
2022/11/09 11:02:24;;;;;;;4.13;0.82;;;;;;;13.31;71.50;100734.53;5026462;28;20063;-76
2022/11/09 11:04:49;;;;;;;7.43;1.17;;;;;;;13.31;69.60;100747.59;5028301;28;20044;-76
2022/11/09 11:07:20;;;;;;;4.97;0.80;;;;;;;13.27;70.47;100746.03;5026833;28;20064;-76
2022/11/09 11:09:46;;;;;;;4.68;0.90;;;;;;;13.25;69.96;100737.38;5027307;28;20040;-76
2022/11/09 11:12:15;;;;;;;6.20;0.90;;;;;;;13.18;69.55;100736.78;5028749;28;20037;-76
2022/11/09 11:14:42;;;;;;;5.93;1.00;;;;;;;13.13;69.74;100742.19;5028428;28;20590;-76
2022/11/09 11:17:24;;;;;;;5.65;0.90;;;;;;;13.11;70.76;100743.13;5026994;28;20079;-76
2022/11/09 11:19:49;;;;;;;4.97;0.88;;;;;;;13.12;69.46;100747.44;5026326;28;20036;-75
2022/11/09 11:22:21;;;;;;;5.05;0.85;;;;;;;13.17;69.73;100745.53;5027548;28;20266;-77
2022/11/09 11:24:53;;;;;;;4.65;1.20;;;;;;;13.27;69.39;100751.25;5008197;28;20057;-76
2022/11/09 11:27:47;;;;;;;6.22;1.17;;;;;;;13.37;69.82;100752.56;5028577;28;20036;-76